sensor_id;sensor_type;location;lat;lon;timestamp;temperature;humidity
68235;DHT22;55052;52.056;5.296;2023-08-06T00:00:56;16.90;94.10
68235;DHT22;55052;52.056;5.296;2023-08-06T00:03:23;16.90;93.70
68235;DHT22;55052;52.056;5.296;2023-08-06T00:05:50;16.90;93.70
68235;DHT22;55052;52.056;5.296;2023-08-06T00:08:17;16.90;93.70
68235;DHT22;55052;52.056;5.296;2023-08-06T00:10:43;16.90;93.70
68235;DHT22;55052;52.056;5.296;2023-08-06T00:13:10;16.90;93.70
68235;DHT22;55052;52.056;5.296;2023-08-06T00:15:37;16.90;93.70
68235;DHT22;55052;52.056;5.296;2023-08-06T00:18:04;16.90;93.70
68235;DHT22;55052;52.056;5.296;2023-08-06T00:20:31;16.90;94.10
68235;DHT22;55052;52.056;5.296;2023-08-06T00:22:58;16.90;93.80
68235;DHT22;55052;52.056;5.296;2023-08-06T00:25:24;16.90;93.80
68235;DHT22;55052;52.056;5.296;2023-08-06T00:27:51;16.90;93.80
68235;DHT22;55052;52.056;5.296;2023-08-06T00:30:18;16.90;93.80
68235;DHT22;55052;52.056;5.296;2023-08-06T00:32:45;16.90;93.80
68235;DHT22;55052;52.056;5.296;2023-08-06T00:35:12;16.90;93.80
68235;DHT22;55052;52.056;5.296;2023-08-06T00:37:40;16.90;93.80
68235;DHT22;55052;52.056;5.296;2023-08-06T00:40:07;16.90;93.90
68235;DHT22;55052;52.056;5.296;2023-08-06T00:42:35;16.90;93.80
68235;DHT22;55052;52.056;5.296;2023-08-06T00:45:02;16.90;93.80
68235;DHT22;55052;52.056;5.296;2023-08-06T00:47:29;17.00;93.90
68235;DHT22;55052;52.056;5.296;2023-08-06T00:49:56;16.90;93.80
68235;DHT22;55052;52.056;5.296;2023-08-06T00:52:23;16.90;93.80
68235;DHT22;55052;52.056;5.296;2023-08-06T00:54:50;16.90;93.80
68235;DHT22;55052;52.056;5.296;2023-08-06T00:57:17;17.00;93.90
68235;DHT22;55052;52.056;5.296;2023-08-06T00:59:45;16.90;93.80
68235;DHT22;55052;52.056;5.296;2023-08-06T01:02:12;17.00;93.90
68235;DHT22;55052;52.056;5.296;2023-08-06T01:04:39;17.00;93.90
68235;DHT22;55052;52.056;5.296;2023-08-06T01:07:24;17.00;93.90
68235;DHT22;55052;52.056;5.296;2023-08-06T01:12:48;17.00;93.90
68235;DHT22;55052;52.056;5.296;2023-08-06T01:15:49;17.00;93.90
68235;DHT22;55052;52.056;5.296;2023-08-06T01:18:16;16.90;93.80
68235;DHT22;55052;52.056;5.296;2023-08-06T01:20:43;16.90;93.90
68235;DHT22;55052;52.056;5.296;2023-08-06T01:23:10;17.00;93.90
68235;DHT22;55052;52.056;5.296;2023-08-06T01:25:55;17.00;93.90
68235;DHT22;55052;52.056;5.296;2023-08-06T01:28:31;17.00;93.90
68235;DHT22;55052;52.056;5.296;2023-08-06T01:31:02;17.00;94.00
68235;DHT22;55052;52.056;5.296;2023-08-06T01:33:32;16.90;94.00
68235;DHT22;55052;52.056;5.296;2023-08-06T01:36:01;17.00;94.00
68235;DHT22;55052;52.056;5.296;2023-08-06T01:38:29;17.00;94.00
68235;DHT22;55052;52.056;5.296;2023-08-06T01:40:55;17.00;93.90
68235;DHT22;55052;52.056;5.296;2023-08-06T01:43:22;17.00;94.00
68235;DHT22;55052;52.056;5.296;2023-08-06T01:45:49;17.00;94.00
68235;DHT22;55052;52.056;5.296;2023-08-06T01:48:16;17.00;94.00
68235;DHT22;55052;52.056;5.296;2023-08-06T01:50:43;16.90;94.00
68235;DHT22;55052;52.056;5.296;2023-08-06T01:53:10;17.00;94.00
68235;DHT22;55052;52.056;5.296;2023-08-06T01:55:37;17.00;94.00
68235;DHT22;55052;52.056;5.296;2023-08-06T01:58:04;17.00;94.00
68235;DHT22;55052;52.056;5.296;2023-08-06T02:00:31;16.90;94.00
68235;DHT22;55052;52.056;5.296;2023-08-06T02:02:58;17.00;94.00
68235;DHT22;55052;52.056;5.296;2023-08-06T02:05:24;16.90;94.00
68235;DHT22;55052;52.056;5.296;2023-08-06T02:07:51;17.00;94.00
68235;DHT22;55052;52.056;5.296;2023-08-06T02:10:18;16.90;94.00
68235;DHT22;55052;52.056;5.296;2023-08-06T02:12:45;16.90;94.00
68235;DHT22;55052;52.056;5.296;2023-08-06T02:15:11;16.90;94.00
68235;DHT22;55052;52.056;5.296;2023-08-06T02:17:38;16.90;94.00
68235;DHT22;55052;52.056;5.296;2023-08-06T02:20:05;16.90;94.00
68235;DHT22;55052;52.056;5.296;2023-08-06T02:22:32;16.90;94.00
68235;DHT22;55052;52.056;5.296;2023-08-06T02:24:59;16.90;94.00
68235;DHT22;55052;52.056;5.296;2023-08-06T02:27:26;16.90;94.10
68235;DHT22;55052;52.056;5.296;2023-08-06T02:29:53;16.90;94.00
68235;DHT22;55052;52.056;5.296;2023-08-06T02:32:20;16.90;94.10
68235;DHT22;55052;52.056;5.296;2023-08-06T02:34:47;16.90;94.10
68235;DHT22;55052;52.056;5.296;2023-08-06T02:37:14;16.90;94.00
68235;DHT22;55052;52.056;5.296;2023-08-06T02:39:41;16.90;94.40
68235;DHT22;55052;52.056;5.296;2023-08-06T02:42:08;16.90;94.10
68235;DHT22;55052;52.056;5.296;2023-08-06T02:44:35;16.90;94.10
68235;DHT22;55052;52.056;5.296;2023-08-06T02:47:02;16.90;94.10
68235;DHT22;55052;52.056;5.296;2023-08-06T02:49:29;16.90;94.10
68235;DHT22;55052;52.056;5.296;2023-08-06T02:51:56;16.90;94.10
68235;DHT22;55052;52.056;5.296;2023-08-06T02:54:22;16.90;94.10
68235;DHT22;55052;52.056;5.296;2023-08-06T02:56:49;16.90;94.10
68235;DHT22;55052;52.056;5.296;2023-08-06T02:59:16;17.00;94.10
68235;DHT22;55052;52.056;5.296;2023-08-06T03:01:43;16.90;94.10
68235;DHT22;55052;52.056;5.296;2023-08-06T03:04:10;16.90;94.10
68235;DHT22;55052;52.056;5.296;2023-08-06T03:06:37;16.90;94.10
68235;DHT22;55052;52.056;5.296;2023-08-06T03:09:04;17.00;94.10
68235;DHT22;55052;52.056;5.296;2023-08-06T03:11:30;17.00;94.20
68235;DHT22;55052;52.056;5.296;2023-08-06T03:13:57;17.00;94.10
68235;DHT22;55052;52.056;5.296;2023-08-06T03:16:24;17.00;94.10
68235;DHT22;55052;52.056;5.296;2023-08-06T03:18:51;16.90;94.10
68235;DHT22;55052;52.056;5.296;2023-08-06T03:21:18;16.90;94.10
68235;DHT22;55052;52.056;5.296;2023-08-06T03:23:47;17.00;94.20
68235;DHT22;55052;52.056;5.296;2023-08-06T03:26:15;16.90;94.10
68235;DHT22;55052;52.056;5.296;2023-08-06T03:28:42;16.90;94.10
68235;DHT22;55052;52.056;5.296;2023-08-06T03:31:08;16.90;94.10
68235;DHT22;55052;52.056;5.296;2023-08-06T03:33:35;16.90;94.10
68235;DHT22;55052;52.056;5.296;2023-08-06T03:36:02;16.90;94.20
68235;DHT22;55052;52.056;5.296;2023-08-06T03:38:29;17.00;94.20
68235;DHT22;55052;52.056;5.296;2023-08-06T03:40:56;17.00;94.20
68235;DHT22;55052;52.056;5.296;2023-08-06T03:43:23;16.90;94.10
68235;DHT22;55052;52.056;5.296;2023-08-06T03:45:50;16.90;94.20
68235;DHT22;55052;52.056;5.296;2023-08-06T03:48:16;17.00;94.20
68235;DHT22;55052;52.056;5.296;2023-08-06T03:50:43;17.00;94.20
68235;DHT22;55052;52.056;5.296;2023-08-06T03:53:10;17.00;94.20
68235;DHT22;55052;52.056;5.296;2023-08-06T03:55:37;17.00;94.20
68235;DHT22;55052;52.056;5.296;2023-08-06T03:58:03;17.00;94.20
68235;DHT22;55052;52.056;5.296;2023-08-06T04:00:30;17.00;94.20
68235;DHT22;55052;52.056;5.296;2023-08-06T04:02:57;17.00;94.20
68235;DHT22;55052;52.056;5.296;2023-08-06T04:05:24;17.00;94.20
68235;DHT22;55052;52.056;5.296;2023-08-06T04:07:51;17.00;94.20
68235;DHT22;55052;52.056;5.296;2023-08-06T04:10:18;17.00;94.20
68235;DHT22;55052;52.056;5.296;2023-08-06T04:12:44;17.00;94.20
68235;DHT22;55052;52.056;5.296;2023-08-06T04:15:11;17.00;94.60
68235;DHT22;55052;52.056;5.296;2023-08-06T04:17:38;17.00;94.20
68235;DHT22;55052;52.056;5.296;2023-08-06T04:20:05;17.00;94.20
68235;DHT22;55052;52.056;5.296;2023-08-06T04:22:32;17.00;94.20
68235;DHT22;55052;52.056;5.296;2023-08-06T04:24:59;17.00;94.20
68235;DHT22;55052;52.056;5.296;2023-08-06T04:27:26;17.00;94.20
68235;DHT22;55052;52.056;5.296;2023-08-06T04:29:53;17.00;94.20
68235;DHT22;55052;52.056;5.296;2023-08-06T04:32:19;17.00;94.20
68235;DHT22;55052;52.056;5.296;2023-08-06T04:34:46;17.00;94.20
68235;DHT22;55052;52.056;5.296;2023-08-06T04:37:14;17.00;94.20
68235;DHT22;55052;52.056;5.296;2023-08-06T04:39:41;17.00;94.20
68235;DHT22;55052;52.056;5.296;2023-08-06T04:42:08;16.90;94.20
68235;DHT22;55052;52.056;5.296;2023-08-06T04:44:34;17.00;94.20
68235;DHT22;55052;52.056;5.296;2023-08-06T04:47:01;16.90;94.20
68235;DHT22;55052;52.056;5.296;2023-08-06T04:49:28;17.00;94.20
68235;DHT22;55052;52.056;5.296;2023-08-06T04:51:55;17.00;94.20
68235;DHT22;55052;52.056;5.296;2023-08-06T04:54:22;17.00;94.20
68235;DHT22;55052;52.056;5.296;2023-08-06T04:56:48;17.00;94.20
68235;DHT22;55052;52.056;5.296;2023-08-06T04:59:15;17.00;94.20
68235;DHT22;55052;52.056;5.296;2023-08-06T05:01:42;17.00;94.20
68235;DHT22;55052;52.056;5.296;2023-08-06T05:04:09;17.00;94.30
68235;DHT22;55052;52.056;5.296;2023-08-06T05:06:36;17.00;94.30
68235;DHT22;55052;52.056;5.296;2023-08-06T05:09:04;17.00;94.30
68235;DHT22;55052;52.056;5.296;2023-08-06T05:11:32;17.00;94.20
68235;DHT22;55052;52.056;5.296;2023-08-06T05:13:59;17.00;94.30
68235;DHT22;55052;52.056;5.296;2023-08-06T05:16:26;17.00;94.20
68235;DHT22;55052;52.056;5.296;2023-08-06T05:18:53;17.00;94.20
68235;DHT22;55052;52.056;5.296;2023-08-06T05:21:19;17.00;94.20
68235;DHT22;55052;52.056;5.296;2023-08-06T05:23:46;17.00;94.20
68235;DHT22;55052;52.056;5.296;2023-08-06T05:26:13;17.00;94.20
68235;DHT22;55052;52.056;5.296;2023-08-06T05:28:42;17.00;94.20
68235;DHT22;55052;52.056;5.296;2023-08-06T05:31:09;17.00;94.30
68235;DHT22;55052;52.056;5.296;2023-08-06T05:33:36;17.00;94.30
68235;DHT22;55052;52.056;5.296;2023-08-06T05:36:03;17.00;94.30
68235;DHT22;55052;52.056;5.296;2023-08-06T05:38:30;17.00;94.30
68235;DHT22;55052;52.056;5.296;2023-08-06T05:40:57;17.00;94.30
68235;DHT22;55052;52.056;5.296;2023-08-06T05:43:23;17.00;94.30
68235;DHT22;55052;52.056;5.296;2023-08-06T05:45:50;17.00;94.30
68235;DHT22;55052;52.056;5.296;2023-08-06T05:48:17;16.90;94.30
68235;DHT22;55052;52.056;5.296;2023-08-06T05:50:44;17.00;94.30
68235;DHT22;55052;52.056;5.296;2023-08-06T05:53:11;16.90;94.30
68235;DHT22;55052;52.056;5.296;2023-08-06T05:55:39;17.00;94.40
68235;DHT22;55052;52.056;5.296;2023-08-06T05:58:05;16.90;94.30
68235;DHT22;55052;52.056;5.296;2023-08-06T06:00:32;16.90;94.30
68235;DHT22;55052;52.056;5.296;2023-08-06T06:02:59;16.90;94.40
68235;DHT22;55052;52.056;5.296;2023-08-06T06:05:26;16.90;94.40
68235;DHT22;55052;52.056;5.296;2023-08-06T06:07:53;16.90;94.40
68235;DHT22;55052;52.056;5.296;2023-08-06T06:10:19;16.90;94.40
68235;DHT22;55052;52.056;5.296;2023-08-06T06:12:46;16.90;94.40
68235;DHT22;55052;52.056;5.296;2023-08-06T06:15:13;16.90;94.40
68235;DHT22;55052;52.056;5.296;2023-08-06T06:17:40;16.90;94.40
68235;DHT22;55052;52.056;5.296;2023-08-06T06:20:07;16.90;94.50
68235;DHT22;55052;52.056;5.296;2023-08-06T06:22:34;16.90;94.50
68235;DHT22;55052;52.056;5.296;2023-08-06T06:25:01;16.90;94.50
68235;DHT22;55052;52.056;5.296;2023-08-06T06:27:27;16.90;94.50
68235;DHT22;55052;52.056;5.296;2023-08-06T06:29:54;16.90;94.50
68235;DHT22;55052;52.056;5.296;2023-08-06T06:32:21;16.90;94.50
68235;DHT22;55052;52.056;5.296;2023-08-06T06:34:48;16.90;94.50
68235;DHT22;55052;52.056;5.296;2023-08-06T06:37:15;16.90;94.40
68235;DHT22;55052;52.056;5.296;2023-08-06T06:39:42;16.90;94.50
68235;DHT22;55052;52.056;5.296;2023-08-06T06:42:09;16.90;94.50
68235;DHT22;55052;52.056;5.296;2023-08-06T06:44:35;16.90;94.60
68235;DHT22;55052;52.056;5.296;2023-08-06T06:47:02;16.90;94.60
68235;DHT22;55052;52.056;5.296;2023-08-06T06:49:29;16.90;94.60
68235;DHT22;55052;52.056;5.296;2023-08-06T06:51:56;16.90;94.60
68235;DHT22;55052;52.056;5.296;2023-08-06T06:54:23;16.90;94.60
68235;DHT22;55052;52.056;5.296;2023-08-06T06:56:50;16.90;94.60
68235;DHT22;55052;52.056;5.296;2023-08-06T06:59:16;16.90;94.60
68235;DHT22;55052;52.056;5.296;2023-08-06T07:01:43;16.90;94.50
68235;DHT22;55052;52.056;5.296;2023-08-06T07:04:10;16.80;94.50
68235;DHT22;55052;52.056;5.296;2023-08-06T07:06:37;16.80;94.60
68235;DHT22;55052;52.056;5.296;2023-08-06T07:09:04;16.80;94.50
68235;DHT22;55052;52.056;5.296;2023-08-06T07:11:31;16.80;94.50
68235;DHT22;55052;52.056;5.296;2023-08-06T07:13:58;16.70;94.40
68235;DHT22;55052;52.056;5.296;2023-08-06T07:16:26;16.70;94.50
68235;DHT22;55052;52.056;5.296;2023-08-06T07:18:53;16.70;94.60
68235;DHT22;55052;52.056;5.296;2023-08-06T07:21:21;16.70;94.60
68235;DHT22;55052;52.056;5.296;2023-08-06T07:23:47;16.70;94.70
68235;DHT22;55052;52.056;5.296;2023-08-06T07:26:17;16.60;94.70
68235;DHT22;55052;52.056;5.296;2023-08-06T07:28:43;16.60;94.60
68235;DHT22;55052;52.056;5.296;2023-08-06T07:31:11;16.60;94.50
68235;DHT22;55052;52.056;5.296;2023-08-06T07:33:39;16.50;94.50
68235;DHT22;55052;52.056;5.296;2023-08-06T07:36:12;16.50;94.50
68235;DHT22;55052;52.056;5.296;2023-08-06T07:38:39;16.50;94.50
68235;DHT22;55052;52.056;5.296;2023-08-06T07:41:07;16.50;94.60
68235;DHT22;55052;52.056;5.296;2023-08-06T07:43:33;16.40;94.70
68235;DHT22;55052;52.056;5.296;2023-08-06T07:46:02;16.40;94.60
68235;DHT22;55052;52.056;5.296;2023-08-06T07:48:29;16.40;94.80
68235;DHT22;55052;52.056;5.296;2023-08-06T07:50:57;16.40;94.70
68235;DHT22;55052;52.056;5.296;2023-08-06T07:53:25;16.40;94.70
68235;DHT22;55052;52.056;5.296;2023-08-06T07:55:56;16.30;94.70
68235;DHT22;55052;52.056;5.296;2023-08-06T07:58:24;16.30;94.70
68235;DHT22;55052;52.056;5.296;2023-08-06T08:00:51;16.30;94.80
68235;DHT22;55052;52.056;5.296;2023-08-06T08:03:18;16.30;94.90
68235;DHT22;55052;52.056;5.296;2023-08-06T08:05:46;16.30;94.90
68235;DHT22;55052;52.056;5.296;2023-08-06T08:08:13;16.30;94.70
68235;DHT22;55052;52.056;5.296;2023-08-06T08:10:40;16.20;94.70
68235;DHT22;55052;52.056;5.296;2023-08-06T08:13:07;16.20;94.70
68235;DHT22;55052;52.056;5.296;2023-08-06T08:15:34;16.10;94.60
68235;DHT22;55052;52.056;5.296;2023-08-06T08:18:01;16.10;94.60
68235;DHT22;55052;52.056;5.296;2023-08-06T08:20:27;16.10;94.70
68235;DHT22;55052;52.056;5.296;2023-08-06T08:22:59;16.00;94.60
68235;DHT22;55052;52.056;5.296;2023-08-06T08:25:27;16.00;94.60
68235;DHT22;55052;52.056;5.296;2023-08-06T08:27:57;15.90;94.60
68235;DHT22;55052;52.056;5.296;2023-08-06T08:30:24;15.90;94.40
68235;DHT22;55052;52.056;5.296;2023-08-06T08:32:52;15.90;94.70
68235;DHT22;55052;52.056;5.296;2023-08-06T08:35:19;15.80;94.60
68235;DHT22;55052;52.056;5.296;2023-08-06T08:37:46;15.80;95.00
68235;DHT22;55052;52.056;5.296;2023-08-06T08:40:14;15.70;94.60
68235;DHT22;55052;52.056;5.296;2023-08-06T08:42:42;15.70;94.70
68235;DHT22;55052;52.056;5.296;2023-08-06T08:45:15;15.70;95.10
68235;DHT22;55052;52.056;5.296;2023-08-06T08:47:42;15.70;94.70
68235;DHT22;55052;52.056;5.296;2023-08-06T08:50:10;15.70;94.80
68235;DHT22;55052;52.056;5.296;2023-08-06T08:52:41;15.70;94.90
68235;DHT22;55052;52.056;5.296;2023-08-06T08:55:09;15.70;94.90
68235;DHT22;55052;52.056;5.296;2023-08-06T08:57:36;15.60;94.90
68235;DHT22;55052;52.056;5.296;2023-08-06T09:00:04;15.70;95.10
68235;DHT22;55052;52.056;5.296;2023-08-06T09:02:32;15.70;95.10
68235;DHT22;55052;52.056;5.296;2023-08-06T09:05:01;15.70;95.20
68235;DHT22;55052;52.056;5.296;2023-08-06T09:07:42;15.70;95.20
68235;DHT22;55052;52.056;5.296;2023-08-06T09:10:12;15.80;95.40
68235;DHT22;55052;52.056;5.296;2023-08-06T09:12:41;15.80;95.30
68235;DHT22;55052;52.056;5.296;2023-08-06T09:15:08;15.80;95.40
68235;DHT22;55052;52.056;5.296;2023-08-06T09:17:36;15.80;95.40
68235;DHT22;55052;52.056;5.296;2023-08-06T09:20:13;15.90;95.50
68235;DHT22;55052;52.056;5.296;2023-08-06T09:22:40;15.90;95.60
68235;DHT22;55052;52.056;5.296;2023-08-06T09:25:08;15.90;95.60
68235;DHT22;55052;52.056;5.296;2023-08-06T09:27:38;15.90;95.70
68235;DHT22;55052;52.056;5.296;2023-08-06T09:30:06;16.00;95.70
68235;DHT22;55052;52.056;5.296;2023-08-06T09:32:45;16.00;95.80
68235;DHT22;55052;52.056;5.296;2023-08-06T09:35:19;16.10;95.80
68235;DHT22;55052;52.056;5.296;2023-08-06T09:37:46;16.10;95.80
68235;DHT22;55052;52.056;5.296;2023-08-06T09:40:26;16.10;95.80
68235;DHT22;55052;52.056;5.296;2023-08-06T09:42:53;16.20;95.80
68235;DHT22;55052;52.056;5.296;2023-08-06T09:45:21;16.20;95.80
68235;DHT22;55052;52.056;5.296;2023-08-06T09:47:55;16.20;95.90
68235;DHT22;55052;52.056;5.296;2023-08-06T09:50:23;16.20;95.90
68235;DHT22;55052;52.056;5.296;2023-08-06T09:52:55;16.20;96.20
68235;DHT22;55052;52.056;5.296;2023-08-06T09:55:23;16.20;95.80
68235;DHT22;55052;52.056;5.296;2023-08-06T09:57:51;16.20;95.80
68235;DHT22;55052;52.056;5.296;2023-08-06T10:00:19;16.30;96.20
68235;DHT22;55052;52.056;5.296;2023-08-06T10:02:46;16.30;95.90
68235;DHT22;55052;52.056;5.296;2023-08-06T10:05:14;16.30;95.80
68235;DHT22;55052;52.056;5.296;2023-08-06T10:07:43;16.30;95.90
68235;DHT22;55052;52.056;5.296;2023-08-06T10:10:11;16.30;96.00
68235;DHT22;55052;52.056;5.296;2023-08-06T10:12:43;16.40;96.00
68235;DHT22;55052;52.056;5.296;2023-08-06T10:15:16;16.40;96.00
68235;DHT22;55052;52.056;5.296;2023-08-06T10:17:45;16.40;95.90
68235;DHT22;55052;52.056;5.296;2023-08-06T10:20:17;16.40;96.00
68235;DHT22;55052;52.056;5.296;2023-08-06T10:22:45;16.40;96.10
68235;DHT22;55052;52.056;5.296;2023-08-06T10:25:16;16.50;96.00
68235;DHT22;55052;52.056;5.296;2023-08-06T10:30:29;16.50;96.00
68235;DHT22;55052;52.056;5.296;2023-08-06T10:33:01;16.50;95.90
68235;DHT22;55052;52.056;5.296;2023-08-06T10:38:00;16.60;96.00
68235;DHT22;55052;52.056;5.296;2023-08-06T10:40:29;16.60;96.00
68235;DHT22;55052;52.056;5.296;2023-08-06T10:43:04;16.60;95.90
68235;DHT22;55052;52.056;5.296;2023-08-06T10:45:37;16.60;96.30
68235;DHT22;55052;52.056;5.296;2023-08-06T10:48:04;16.60;95.90
68235;DHT22;55052;52.056;5.296;2023-08-06T10:50:32;16.60;95.90
68235;DHT22;55052;52.056;5.296;2023-08-06T10:53:04;16.60;95.80
68235;DHT22;55052;52.056;5.296;2023-08-06T10:55:31;16.60;95.80
68235;DHT22;55052;52.056;5.296;2023-08-06T10:57:58;16.60;95.80
68235;DHT22;55052;52.056;5.296;2023-08-06T11:00:25;16.60;95.80
68235;DHT22;55052;52.056;5.296;2023-08-06T11:02:53;16.60;95.80
68235;DHT22;55052;52.056;5.296;2023-08-06T11:05:21;16.60;95.80
68235;DHT22;55052;52.056;5.296;2023-08-06T11:07:48;16.60;95.80
68235;DHT22;55052;52.056;5.296;2023-08-06T11:10:16;16.70;95.90
68235;DHT22;55052;52.056;5.296;2023-08-06T11:12:43;16.70;95.90
68235;DHT22;55052;52.056;5.296;2023-08-06T11:15:10;16.70;96.30
68235;DHT22;55052;52.056;5.296;2023-08-06T11:17:40;16.80;95.90
68235;DHT22;55052;52.056;5.296;2023-08-06T11:20:08;16.80;96.30
68235;DHT22;55052;52.056;5.296;2023-08-06T11:22:38;16.80;95.90
68235;DHT22;55052;52.056;5.296;2023-08-06T11:25:06;16.80;95.90
68235;DHT22;55052;52.056;5.296;2023-08-06T11:27:33;16.90;96.00
68235;DHT22;55052;52.056;5.296;2023-08-06T11:30:00;16.90;96.00
68235;DHT22;55052;52.056;5.296;2023-08-06T11:32:27;17.00;96.00
68235;DHT22;55052;52.056;5.296;2023-08-06T11:34:55;17.00;95.90
68235;DHT22;55052;52.056;5.296;2023-08-06T11:37:22;17.00;95.90
68235;DHT22;55052;52.056;5.296;2023-08-06T11:39:51;17.00;95.80
68235;DHT22;55052;52.056;5.296;2023-08-06T11:42:18;17.10;95.90
68235;DHT22;55052;52.056;5.296;2023-08-06T11:44:45;17.10;95.80
68235;DHT22;55052;52.056;5.296;2023-08-06T11:47:14;17.10;95.80
68235;DHT22;55052;52.056;5.296;2023-08-06T11:49:45;17.10;95.80
68235;DHT22;55052;52.056;5.296;2023-08-06T11:52:25;17.10;95.80
68235;DHT22;55052;52.056;5.296;2023-08-06T11:55:05;17.10;95.70
68235;DHT22;55052;52.056;5.296;2023-08-06T11:57:39;17.10;95.70
68235;DHT22;55052;52.056;5.296;2023-08-06T12:00:11;17.10;95.60
68235;DHT22;55052;52.056;5.296;2023-08-06T12:02:40;17.10;95.60
68235;DHT22;55052;52.056;5.296;2023-08-06T12:05:16;17.10;95.70
68235;DHT22;55052;52.056;5.296;2023-08-06T12:07:48;17.10;95.60
68235;DHT22;55052;52.056;5.296;2023-08-06T12:10:16;17.20;95.60
68235;DHT22;55052;52.056;5.296;2023-08-06T12:12:43;17.10;95.50
68235;DHT22;55052;52.056;5.296;2023-08-06T12:15:10;17.10;95.60
68235;DHT22;55052;52.056;5.296;2023-08-06T12:17:37;17.10;95.60
68235;DHT22;55052;52.056;5.296;2023-08-06T12:20:05;17.10;95.40
68235;DHT22;55052;52.056;5.296;2023-08-06T12:22:33;17.10;95.50
68235;DHT22;55052;52.056;5.296;2023-08-06T12:25:07;17.10;95.40
68235;DHT22;55052;52.056;5.296;2023-08-06T12:27:35;17.10;95.30
68235;DHT22;55052;52.056;5.296;2023-08-06T12:30:03;17.10;95.20
68235;DHT22;55052;52.056;5.296;2023-08-06T12:32:30;17.10;95.20
68235;DHT22;55052;52.056;5.296;2023-08-06T12:34:57;17.10;95.30
68235;DHT22;55052;52.056;5.296;2023-08-06T12:37:24;17.10;95.60
68235;DHT22;55052;52.056;5.296;2023-08-06T12:39:51;17.00;95.20
68235;DHT22;55052;52.056;5.296;2023-08-06T12:42:18;17.10;95.30
68235;DHT22;55052;52.056;5.296;2023-08-06T12:44:46;17.10;95.30
68235;DHT22;55052;52.056;5.296;2023-08-06T12:47:13;17.10;95.30
68235;DHT22;55052;52.056;5.296;2023-08-06T12:49:40;17.10;95.20
68235;DHT22;55052;52.056;5.296;2023-08-06T12:52:06;17.10;95.20
68235;DHT22;55052;52.056;5.296;2023-08-06T12:54:35;17.10;95.30
68235;DHT22;55052;52.056;5.296;2023-08-06T12:57:05;17.10;95.20
68235;DHT22;55052;52.056;5.296;2023-08-06T12:59:32;17.10;95.10
68235;DHT22;55052;52.056;5.296;2023-08-06T13:02:03;17.10;95.20
68235;DHT22;55052;52.056;5.296;2023-08-06T13:04:31;17.10;95.10
68235;DHT22;55052;52.056;5.296;2023-08-06T13:06:58;17.10;95.20
68235;DHT22;55052;52.056;5.296;2023-08-06T13:09:25;17.10;95.20
68235;DHT22;55052;52.056;5.296;2023-08-06T13:11:55;17.10;95.10
68235;DHT22;55052;52.056;5.296;2023-08-06T13:14:22;17.10;95.20
68235;DHT22;55052;52.056;5.296;2023-08-06T13:16:49;17.10;95.20
68235;DHT22;55052;52.056;5.296;2023-08-06T13:19:16;17.10;95.20
68235;DHT22;55052;52.056;5.296;2023-08-06T13:22:02;17.20;95.30
68235;DHT22;55052;52.056;5.296;2023-08-06T13:24:30;17.10;95.30
68235;DHT22;55052;52.056;5.296;2023-08-06T13:26:57;17.20;95.20
68235;DHT22;55052;52.056;5.296;2023-08-06T13:29:25;17.10;95.20
68235;DHT22;55052;52.056;5.296;2023-08-06T13:31:52;17.20;95.20
68235;DHT22;55052;52.056;5.296;2023-08-06T13:34:19;17.10;95.10
68235;DHT22;55052;52.056;5.296;2023-08-06T13:36:46;17.10;95.10
68235;DHT22;55052;52.056;5.296;2023-08-06T13:39:14;17.20;95.20
68235;DHT22;55052;52.056;5.296;2023-08-06T13:41:43;17.20;95.20
68235;DHT22;55052;52.056;5.296;2023-08-06T13:44:10;17.20;95.20
68235;DHT22;55052;52.056;5.296;2023-08-06T13:46:37;17.20;95.10
68235;DHT22;55052;52.056;5.296;2023-08-06T13:49:04;17.20;95.10
68235;DHT22;55052;52.056;5.296;2023-08-06T13:51:31;17.20;95.10
68235;DHT22;55052;52.056;5.296;2023-08-06T13:53:58;17.20;95.20
68235;DHT22;55052;52.056;5.296;2023-08-06T13:56:24;17.20;95.10
68235;DHT22;55052;52.056;5.296;2023-08-06T13:58:51;17.20;95.10
68235;DHT22;55052;52.056;5.296;2023-08-06T14:01:18;17.10;95.10
68235;DHT22;55052;52.056;5.296;2023-08-06T14:03:54;17.10;95.20
68235;DHT22;55052;52.056;5.296;2023-08-06T14:06:21;17.20;95.20
68235;DHT22;55052;52.056;5.296;2023-08-06T14:08:48;17.20;95.20
68235;DHT22;55052;52.056;5.296;2023-08-06T14:11:15;17.20;95.20
68235;DHT22;55052;52.056;5.296;2023-08-06T14:13:42;17.20;95.20
68235;DHT22;55052;52.056;5.296;2023-08-06T14:16:08;17.20;95.20
68235;DHT22;55052;52.056;5.296;2023-08-06T14:18:35;17.20;95.20
68235;DHT22;55052;52.056;5.296;2023-08-06T14:21:04;17.20;95.30
68235;DHT22;55052;52.056;5.296;2023-08-06T14:23:31;17.20;95.30
68235;DHT22;55052;52.056;5.296;2023-08-06T14:25:58;17.20;95.30
68235;DHT22;55052;52.056;5.296;2023-08-06T14:28:25;17.20;95.30
68235;DHT22;55052;52.056;5.296;2023-08-06T14:30:51;17.20;95.40
68235;DHT22;55052;52.056;5.296;2023-08-06T14:33:19;17.30;95.40
68235;DHT22;55052;52.056;5.296;2023-08-06T14:35:53;17.30;95.40
68235;DHT22;55052;52.056;5.296;2023-08-06T14:38:20;17.30;95.40
68235;DHT22;55052;52.056;5.296;2023-08-06T14:40:47;17.30;95.30
68235;DHT22;55052;52.056;5.296;2023-08-06T14:43:13;17.30;95.40
68235;DHT22;55052;52.056;5.296;2023-08-06T14:45:41;17.30;95.40
68235;DHT22;55052;52.056;5.296;2023-08-06T14:48:08;17.30;95.30
68235;DHT22;55052;52.056;5.296;2023-08-06T14:50:35;17.30;95.30
68235;DHT22;55052;52.056;5.296;2023-08-06T14:53:03;17.30;95.30
68235;DHT22;55052;52.056;5.296;2023-08-06T14:55:31;17.30;95.40
68235;DHT22;55052;52.056;5.296;2023-08-06T14:58:00;17.30;95.40
68235;DHT22;55052;52.056;5.296;2023-08-06T15:00:28;17.30;95.40
68235;DHT22;55052;52.056;5.296;2023-08-06T15:02:55;17.30;95.30
68235;DHT22;55052;52.056;5.296;2023-08-06T15:05:21;17.30;95.20
68235;DHT22;55052;52.056;5.296;2023-08-06T15:07:48;17.30;95.20
68235;DHT22;55052;52.056;5.296;2023-08-06T15:10:15;17.30;95.00
68235;DHT22;55052;52.056;5.296;2023-08-06T15:12:45;17.20;94.90
68235;DHT22;55052;52.056;5.296;2023-08-06T15:15:12;17.20;94.90
68235;DHT22;55052;52.056;5.296;2023-08-06T15:17:39;17.10;94.90
68235;DHT22;55052;52.056;5.296;2023-08-06T15:20:06;17.10;94.80
68235;DHT22;55052;52.056;5.296;2023-08-06T15:22:33;17.00;94.70
68235;DHT22;55052;52.056;5.296;2023-08-06T15:25:00;17.00;94.80
68235;DHT22;55052;52.056;5.296;2023-08-06T15:27:28;16.90;94.80
68235;DHT22;55052;52.056;5.296;2023-08-06T15:29:55;16.90;94.80
68235;DHT22;55052;52.056;5.296;2023-08-06T15:32:22;16.90;94.90
68235;DHT22;55052;52.056;5.296;2023-08-06T15:34:50;16.80;94.90
68235;DHT22;55052;52.056;5.296;2023-08-06T15:37:17;16.80;94.90
68235;DHT22;55052;52.056;5.296;2023-08-06T15:39:44;16.80;94.90
68235;DHT22;55052;52.056;5.296;2023-08-06T15:42:11;16.80;94.90